sensor_id;sensor_type;location;lat;lon;timestamp;temperature;humidity
20672;DHT22;10495;50.922;4.760;2023-06-22T00:00:51;22.80;70.30
20672;DHT22;10495;50.922;4.760;2023-06-22T00:03:18;22.80;70.40
20672;DHT22;10495;50.922;4.760;2023-06-22T00:05:45;22.80;69.60
20672;DHT22;10495;50.922;4.760;2023-06-22T00:08:10;22.80;69.20
20672;DHT22;10495;50.922;4.760;2023-06-22T00:10:36;22.80;69.40
20672;DHT22;10495;50.922;4.760;2023-06-22T00:13:02;22.80;71.10
20672;DHT22;10495;50.922;4.760;2023-06-22T00:15:28;22.70;72.70
20672;DHT22;10495;50.922;4.760;2023-06-22T00:17:54;22.70;72.60
20672;DHT22;10495;50.922;4.760;2023-06-22T00:20:19;22.60;72.70
20672;DHT22;10495;50.922;4.760;2023-06-22T00:22:45;22.50;72.70
20672;DHT22;10495;50.922;4.760;2023-06-22T00:25:11;22.50;72.70
20672;DHT22;10495;50.922;4.760;2023-06-22T00:27:37;22.40;72.50
20672;DHT22;10495;50.922;4.760;2023-06-22T00:30:03;22.40;72.30
20672;DHT22;10495;50.922;4.760;2023-06-22T00:32:29;22.40;72.20
20672;DHT22;10495;50.922;4.760;2023-06-22T00:34:54;22.40;72.20
20672;DHT22;10495;50.922;4.760;2023-06-22T00:37:20;22.30;72.00
20672;DHT22;10495;50.922;4.760;2023-06-22T00:39:51;22.30;72.50
20672;DHT22;10495;50.922;4.760;2023-06-22T00:42:17;22.30;72.20
20672;DHT22;10495;50.922;4.760;2023-06-22T00:44:42;22.20;72.60
20672;DHT22;10495;50.922;4.760;2023-06-22T00:47:09;22.20;72.40
20672;DHT22;10495;50.922;4.760;2023-06-22T00:49:35;22.20;72.80
20672;DHT22;10495;50.922;4.760;2023-06-22T00:52:01;22.10;73.20
20672;DHT22;10495;50.922;4.760;2023-06-22T00:54:27;22.10;73.30
20672;DHT22;10495;50.922;4.760;2023-06-22T00:56:54;22.10;74.50
20672;DHT22;10495;50.922;4.760;2023-06-22T00:59:22;22.00;75.10
20672;DHT22;10495;50.922;4.760;2023-06-22T01:01:48;22.00;76.00
20672;DHT22;10495;50.922;4.760;2023-06-22T01:04:15;22.00;76.30
20672;DHT22;10495;50.922;4.760;2023-06-22T01:07:10;22.00;76.80
20672;DHT22;10495;50.922;4.760;2023-06-22T01:12:34;22.00;77.20
20672;DHT22;10495;50.922;4.760;2023-06-22T01:17:56;22.00;77.60
20672;DHT22;10495;50.922;4.760;2023-06-22T01:20:23;21.90;77.50
20672;DHT22;10495;50.922;4.760;2023-06-22T01:25:33;21.90;77.70
20672;DHT22;10495;50.922;4.760;2023-06-22T01:28:39;21.90;77.90
20672;DHT22;10495;50.922;4.760;2023-06-22T01:31:07;21.90;77.80
20672;DHT22;10495;50.922;4.760;2023-06-22T01:33:36;21.80;77.70
20672;DHT22;10495;50.922;4.760;2023-06-22T01:36:03;21.90;77.50
20672;DHT22;10495;50.922;4.760;2023-06-22T01:38:30;21.90;77.10
20672;DHT22;10495;50.922;4.760;2023-06-22T01:40:57;21.90;77.30
20672;DHT22;10495;50.922;4.760;2023-06-22T01:43:25;21.90;76.90
20672;DHT22;10495;50.922;4.760;2023-06-22T01:45:52;22.00;76.80
20672;DHT22;10495;50.922;4.760;2023-06-22T01:48:18;22.00;76.10
20672;DHT22;10495;50.922;4.760;2023-06-22T01:50:45;22.00;75.80
20672;DHT22;10495;50.922;4.760;2023-06-22T01:53:10;22.00;75.70
20672;DHT22;10495;50.922;4.760;2023-06-22T01:55:36;22.00;75.60
20672;DHT22;10495;50.922;4.760;2023-06-22T01:58:02;21.90;75.90
20672;DHT22;10495;50.922;4.760;2023-06-22T02:00:29;21.90;76.10
20672;DHT22;10495;50.922;4.760;2023-06-22T02:05:49;21.60;77.60
20672;DHT22;10495;50.922;4.760;2023-06-22T02:08:21;21.50;77.70
20672;DHT22;10495;50.922;4.760;2023-06-22T02:10:49;21.30;78.00
20672;DHT22;10495;50.922;4.760;2023-06-22T02:13:16;21.30;78.50
20672;DHT22;10495;50.922;4.760;2023-06-22T02:15:42;21.20;78.60
20672;DHT22;10495;50.922;4.760;2023-06-22T02:18:08;21.10;78.80
20672;DHT22;10495;50.922;4.760;2023-06-22T02:20:37;21.10;79.10
20672;DHT22;10495;50.922;4.760;2023-06-22T02:23:03;21.10;78.90
20672;DHT22;10495;50.922;4.760;2023-06-22T02:25:28;21.20;78.70
20672;DHT22;10495;50.922;4.760;2023-06-22T02:27:54;21.20;78.60
20672;DHT22;10495;50.922;4.760;2023-06-22T02:30:19;21.10;78.40
20672;DHT22;10495;50.922;4.760;2023-06-22T02:32:45;21.10;78.30
20672;DHT22;10495;50.922;4.760;2023-06-22T02:35:11;21.10;78.30
20672;DHT22;10495;50.922;4.760;2023-06-22T02:37:37;21.00;78.40
20672;DHT22;10495;50.922;4.760;2023-06-22T02:40:10;21.00;78.60
20672;DHT22;10495;50.922;4.760;2023-06-22T02:42:39;21.00;79.00
20672;DHT22;10495;50.922;4.760;2023-06-22T02:45:05;20.80;79.00
20672;DHT22;10495;50.922;4.760;2023-06-22T02:47:31;20.90;79.10
20672;DHT22;10495;50.922;4.760;2023-06-22T02:49:56;20.80;79.10
20672;DHT22;10495;50.922;4.760;2023-06-22T02:52:22;20.80;79.20
20672;DHT22;10495;50.922;4.760;2023-06-22T02:54:48;20.80;79.10
20672;DHT22;10495;50.922;4.760;2023-06-22T02:57:13;20.80;79.10
20672;DHT22;10495;50.922;4.760;2023-06-22T02:59:40;20.80;79.20
20672;DHT22;10495;50.922;4.760;2023-06-22T03:02:08;20.80;79.30
20672;DHT22;10495;50.922;4.760;2023-06-22T03:04:34;20.80;79.30
20672;DHT22;10495;50.922;4.760;2023-06-22T03:07:01;20.90;79.50
20672;DHT22;10495;50.922;4.760;2023-06-22T03:09:29;20.90;79.30
20672;DHT22;10495;50.922;4.760;2023-06-22T03:11:55;20.90;78.90
20672;DHT22;10495;50.922;4.760;2023-06-22T03:14:21;20.80;79.00
20672;DHT22;10495;50.922;4.760;2023-06-22T03:16:46;20.80;78.90
20672;DHT22;10495;50.922;4.760;2023-06-22T03:19:13;20.80;79.10
20672;DHT22;10495;50.922;4.760;2023-06-22T03:21:39;20.70;79.30
20672;DHT22;10495;50.922;4.760;2023-06-22T03:24:08;20.80;79.30
20672;DHT22;10495;50.922;4.760;2023-06-22T03:26:34;20.80;79.10
20672;DHT22;10495;50.922;4.760;2023-06-22T03:29:00;20.80;79.00
20672;DHT22;10495;50.922;4.760;2023-06-22T03:31:26;20.80;78.80
20672;DHT22;10495;50.922;4.760;2023-06-22T03:33:51;20.90;78.60
20672;DHT22;10495;50.922;4.760;2023-06-22T03:36:17;20.90;78.10
20672;DHT22;10495;50.922;4.760;2023-06-22T03:38:50;20.90;77.70
20672;DHT22;10495;50.922;4.760;2023-06-22T03:41:15;20.90;77.50
20672;DHT22;10495;50.922;4.760;2023-06-22T03:43:41;20.90;77.10
20672;DHT22;10495;50.922;4.760;2023-06-22T03:46:07;20.90;76.80
20672;DHT22;10495;50.922;4.760;2023-06-22T03:48:33;20.90;76.70
20672;DHT22;10495;50.922;4.760;2023-06-22T03:51:02;20.90;76.80
20672;DHT22;10495;50.922;4.760;2023-06-22T03:53:29;20.90;76.90
20672;DHT22;10495;50.922;4.760;2023-06-22T03:55:56;20.90;77.20
20672;DHT22;10495;50.922;4.760;2023-06-22T03:58:21;20.90;77.90
20672;DHT22;10495;50.922;4.760;2023-06-22T04:00:51;20.90;78.00
20672;DHT22;10495;50.922;4.760;2023-06-22T04:03:17;20.90;78.80
20672;DHT22;10495;50.922;4.760;2023-06-22T04:05:46;20.90;78.80
20672;DHT22;10495;50.922;4.760;2023-06-22T04:08:13;20.90;79.50
20672;DHT22;10495;50.922;4.760;2023-06-22T04:10:39;20.90;79.80
20672;DHT22;10495;50.922;4.760;2023-06-22T04:13:05;20.90;79.90
20672;DHT22;10495;50.922;4.760;2023-06-22T04:15:30;20.90;79.80
20672;DHT22;10495;50.922;4.760;2023-06-22T04:17:56;21.00;79.80
20672;DHT22;10495;50.922;4.760;2023-06-22T04:20:22;21.00;79.70
20672;DHT22;10495;50.922;4.760;2023-06-22T04:22:51;21.10;79.90
20672;DHT22;10495;50.922;4.760;2023-06-22T04:25:17;21.10;80.10
20672;DHT22;10495;50.922;4.760;2023-06-22T04:27:42;21.00;80.10
20672;DHT22;10495;50.922;4.760;2023-06-22T04:30:08;21.10;80.20
20672;DHT22;10495;50.922;4.760;2023-06-22T04:32:35;21.10;80.30
20672;DHT22;10495;50.922;4.760;2023-06-22T04:35:03;21.10;80.10
20672;DHT22;10495;50.922;4.760;2023-06-22T04:37:32;21.00;80.40
20672;DHT22;10495;50.922;4.760;2023-06-22T04:39:58;21.00;80.40
20672;DHT22;10495;50.922;4.760;2023-06-22T04:42:26;21.00;80.30
20672;DHT22;10495;50.922;4.760;2023-06-22T04:44:52;21.00;80.30
20672;DHT22;10495;50.922;4.760;2023-06-22T04:47:17;21.10;80.20
20672;DHT22;10495;50.922;4.760;2023-06-22T04:49:43;21.10;80.00
20672;DHT22;10495;50.922;4.760;2023-06-22T04:52:11;21.10;80.00
20672;DHT22;10495;50.922;4.760;2023-06-22T04:54:38;21.10;80.10
20672;DHT22;10495;50.922;4.760;2023-06-22T04:57:06;21.10;80.60
20672;DHT22;10495;50.922;4.760;2023-06-22T04:59:36;21.10;80.40
20672;DHT22;10495;50.922;4.760;2023-06-22T05:02:02;21.20;80.60
20672;DHT22;10495;50.922;4.760;2023-06-22T05:04:29;21.10;81.10
20672;DHT22;10495;50.922;4.760;2023-06-22T05:06:59;21.20;81.20
20672;DHT22;10495;50.922;4.760;2023-06-22T05:09:28;21.20;81.00
20672;DHT22;10495;50.922;4.760;2023-06-22T05:11:54;21.20;81.40
20672;DHT22;10495;50.922;4.760;2023-06-22T05:14:19;21.30;81.20
20672;DHT22;10495;50.922;4.760;2023-06-22T05:16:46;21.30;81.30
20672;DHT22;10495;50.922;4.760;2023-06-22T05:19:12;21.10;81.80
20672;DHT22;10495;50.922;4.760;2023-06-22T05:21:38;21.20;82.10
20672;DHT22;10495;50.922;4.760;2023-06-22T05:24:04;21.30;82.30
20672;DHT22;10495;50.922;4.760;2023-06-22T05:26:31;21.30;81.90
20672;DHT22;10495;50.922;4.760;2023-06-22T05:28:57;21.40;81.80
20672;DHT22;10495;50.922;4.760;2023-06-22T05:31:23;21.40;81.50
20672;DHT22;10495;50.922;4.760;2023-06-22T05:33:53;21.40;81.50
20672;DHT22;10495;50.922;4.760;2023-06-22T05:36:19;21.40;81.30
20672;DHT22;10495;50.922;4.760;2023-06-22T05:38:45;21.30;81.00
20672;DHT22;10495;50.922;4.760;2023-06-22T05:41:11;21.30;81.80
20672;DHT22;10495;50.922;4.760;2023-06-22T05:43:37;21.30;81.60
20672;DHT22;10495;50.922;4.760;2023-06-22T05:46:03;21.20;81.70
20672;DHT22;10495;50.922;4.760;2023-06-22T05:48:29;21.20;82.20
20672;DHT22;10495;50.922;4.760;2023-06-22T05:50:55;21.30;82.60
20672;DHT22;10495;50.922;4.760;2023-06-22T05:53:21;21.10;83.20
20672;DHT22;10495;50.922;4.760;2023-06-22T05:55:46;21.10;83.60
20672;DHT22;10495;50.922;4.760;2023-06-22T05:58:12;21.30;83.30
20672;DHT22;10495;50.922;4.760;2023-06-22T06:00:41;21.40;83.10
20672;DHT22;10495;50.922;4.760;2023-06-22T06:03:08;21.50;83.30
20672;DHT22;10495;50.922;4.760;2023-06-22T06:05:34;21.40;83.50
20672;DHT22;10495;50.922;4.760;2023-06-22T06:08:01;21.40;83.20
20672;DHT22;10495;50.922;4.760;2023-06-22T06:10:27;21.40;83.10
20672;DHT22;10495;50.922;4.760;2023-06-22T06:12:55;21.50;82.80
20672;DHT22;10495;50.922;4.760;2023-06-22T06:15:21;21.70;82.80
20672;DHT22;10495;50.922;4.760;2023-06-22T06:17:53;21.80;82.20
20672;DHT22;10495;50.922;4.760;2023-06-22T06:20:21;21.90;82.00
20672;DHT22;10495;50.922;4.760;2023-06-22T06:22:47;21.80;81.40
20672;DHT22;10495;50.922;4.760;2023-06-22T06:25:13;21.90;80.60
20672;DHT22;10495;50.922;4.760;2023-06-22T06:27:42;22.00;80.60
20672;DHT22;10495;50.922;4.760;2023-06-22T06:30:10;22.10;80.10
20672;DHT22;10495;50.922;4.760;2023-06-22T06:32:36;22.10;79.90
20672;DHT22;10495;50.922;4.760;2023-06-22T06:35:01;22.30;79.60
20672;DHT22;10495;50.922;4.760;2023-06-22T06:37:27;22.40;78.40
20672;DHT22;10495;50.922;4.760;2023-06-22T06:39:53;22.50;78.00
20672;DHT22;10495;50.922;4.760;2023-06-22T06:42:19;22.60;77.40
20672;DHT22;10495;50.922;4.760;2023-06-22T06:44:45;22.50;77.00
20672;DHT22;10495;50.922;4.760;2023-06-22T06:47:11;22.50;77.70
20672;DHT22;10495;50.922;4.760;2023-06-22T06:49:36;22.60;77.20
20672;DHT22;10495;50.922;4.760;2023-06-22T06:52:02;22.80;76.90
20672;DHT22;10495;50.922;4.760;2023-06-22T06:54:28;22.90;75.50
20672;DHT22;10495;50.922;4.760;2023-06-22T06:56:53;22.70;75.60
20672;DHT22;10495;50.922;4.760;2023-06-22T06:59:19;22.60;75.70
20672;DHT22;10495;50.922;4.760;2023-06-22T07:01:44;22.90;74.60
20672;DHT22;10495;50.922;4.760;2023-06-22T07:04:10;23.00;73.80
20672;DHT22;10495;50.922;4.760;2023-06-22T07:06:36;22.90;73.70
20672;DHT22;10495;50.922;4.760;2023-06-22T07:09:03;22.90;74.20
20672;DHT22;10495;50.922;4.760;2023-06-22T07:11:29;22.90;73.20
20672;DHT22;10495;50.922;4.760;2023-06-22T07:13:54;22.90;73.30
20672;DHT22;10495;50.922;4.760;2023-06-22T07:16:20;22.90;73.50
20672;DHT22;10495;50.922;4.760;2023-06-22T07:18:46;22.90;73.00
20672;DHT22;10495;50.922;4.760;2023-06-22T07:21:11;22.90;73.60
20672;DHT22;10495;50.922;4.760;2023-06-22T07:23:37;22.70;74.50
20672;DHT22;10495;50.922;4.760;2023-06-22T07:26:02;22.80;74.20
20672;DHT22;10495;50.922;4.760;2023-06-22T07:28:28;22.70;74.30
20672;DHT22;10495;50.922;4.760;2023-06-22T07:30:57;22.80;74.30
20672;DHT22;10495;50.922;4.760;2023-06-22T07:33:22;22.80;74.10
20672;DHT22;10495;50.922;4.760;2023-06-22T07:35:48;22.80;74.20
20672;DHT22;10495;50.922;4.760;2023-06-22T07:38:15;22.80;73.70
20672;DHT22;10495;50.922;4.760;2023-06-22T07:40:41;22.70;74.10
20672;DHT22;10495;50.922;4.760;2023-06-22T07:43:07;22.80;74.80
20672;DHT22;10495;50.922;4.760;2023-06-22T07:45:32;23.00;73.60
20672;DHT22;10495;50.922;4.760;2023-06-22T07:48:00;22.70;74.20
20672;DHT22;10495;50.922;4.760;2023-06-22T07:50:26;22.70;74.20
20672;DHT22;10495;50.922;4.760;2023-06-22T07:52:52;22.60;74.40
20672;DHT22;10495;50.922;4.760;2023-06-22T07:55:18;22.80;74.80
20672;DHT22;10495;50.922;4.760;2023-06-22T07:57:44;22.90;74.50
20672;DHT22;10495;50.922;4.760;2023-06-22T08:00:10;22.90;73.50
20672;DHT22;10495;50.922;4.760;2023-06-22T08:02:44;22.90;73.80
20672;DHT22;10495;50.922;4.760;2023-06-22T08:05:10;22.90;73.80
20672;DHT22;10495;50.922;4.760;2023-06-22T08:07:36;22.80;74.00
20672;DHT22;10495;50.922;4.760;2023-06-22T08:10:05;22.60;74.60
20672;DHT22;10495;50.922;4.760;2023-06-22T08:12:31;22.70;74.30
20672;DHT22;10495;50.922;4.760;2023-06-22T08:14:57;22.50;73.90
20672;DHT22;10495;50.922;4.760;2023-06-22T08:17:24;22.70;73.80
20672;DHT22;10495;50.922;4.760;2023-06-22T08:19:49;22.60;73.90
20672;DHT22;10495;50.922;4.760;2023-06-22T08:22:16;22.60;74.10
20672;DHT22;10495;50.922;4.760;2023-06-22T08:24:41;22.50;74.40
20672;DHT22;10495;50.922;4.760;2023-06-22T08:27:07;22.60;73.80
20672;DHT22;10495;50.922;4.760;2023-06-22T08:29:40;22.70;72.80
20672;DHT22;10495;50.922;4.760;2023-06-22T08:32:10;22.70;72.50
20672;DHT22;10495;50.922;4.760;2023-06-22T08:34:36;22.80;72.00
20672;DHT22;10495;50.922;4.760;2023-06-22T08:37:01;23.00;71.50
20672;DHT22;10495;50.922;4.760;2023-06-22T08:39:32;22.90;71.40
20672;DHT22;10495;50.922;4.760;2023-06-22T08:41:57;22.70;72.40
20672;DHT22;10495;50.922;4.760;2023-06-22T08:44:23;22.80;70.90
20672;DHT22;10495;50.922;4.760;2023-06-22T08:46:48;22.90;70.60
20672;DHT22;10495;50.922;4.760;2023-06-22T08:49:14;22.70;70.70
20672;DHT22;10495;50.922;4.760;2023-06-22T08:51:40;22.70;71.30
20672;DHT22;10495;50.922;4.760;2023-06-22T08:54:06;22.50;71.30
20672;DHT22;10495;50.922;4.760;2023-06-22T08:56:31;22.60;71.50
20672;DHT22;10495;50.922;4.760;2023-06-22T08:58:57;22.80;71.50
20672;DHT22;10495;50.922;4.760;2023-06-22T09:01:24;23.00;71.20
20672;DHT22;10495;50.922;4.760;2023-06-22T09:03:50;22.70;71.10
20672;DHT22;10495;50.922;4.760;2023-06-22T09:06:20;22.70;70.40
20672;DHT22;10495;50.922;4.760;2023-06-22T09:08:47;22.90;69.50
20672;DHT22;10495;50.922;4.760;2023-06-22T09:11:13;22.90;69.50
20672;DHT22;10495;50.922;4.760;2023-06-22T09:13:38;22.90;70.20
20672;DHT22;10495;50.922;4.760;2023-06-22T09:16:04;23.00;70.80
20672;DHT22;10495;50.922;4.760;2023-06-22T09:18:30;23.00;71.10
20672;DHT22;10495;50.922;4.760;2023-06-22T09:20:56;22.90;71.80
20672;DHT22;10495;50.922;4.760;2023-06-22T09:23:21;22.90;72.70
20672;DHT22;10495;50.922;4.760;2023-06-22T09:25:47;22.90;73.30
20672;DHT22;10495;50.922;4.760;2023-06-22T09:28:14;23.00;73.40
20672;DHT22;10495;50.922;4.760;2023-06-22T09:30:39;22.90;74.20
20672;DHT22;10495;50.922;4.760;2023-06-22T09:33:05;23.00;72.80
20672;DHT22;10495;50.922;4.760;2023-06-22T09:35:30;23.10;72.40
20672;DHT22;10495;50.922;4.760;2023-06-22T09:37:56;22.90;73.50
20672;DHT22;10495;50.922;4.760;2023-06-22T09:40:22;22.70;74.10
20672;DHT22;10495;50.922;4.760;2023-06-22T09:42:47;22.70;74.50
20672;DHT22;10495;50.922;4.760;2023-06-22T09:45:13;22.60;75.10
20672;DHT22;10495;50.922;4.760;2023-06-22T09:47:38;22.30;77.00
20672;DHT22;10495;50.922;4.760;2023-06-22T09:50:05;22.10;78.50
20672;DHT22;10495;50.922;4.760;2023-06-22T09:52:31;21.80;80.70
20672;DHT22;10495;50.922;4.760;2023-06-22T09:54:56;21.40;81.70
20672;DHT22;10495;50.922;4.760;2023-06-22T09:57:22;21.20;83.50
20672;DHT22;10495;50.922;4.760;2023-06-22T09:59:48;21.00;84.30
20672;DHT22;10495;50.922;4.760;2023-06-22T10:02:13;20.80;86.70
20672;DHT22;10495;50.922;4.760;2023-06-22T10:04:39;20.40;89.00
20672;DHT22;10495;50.922;4.760;2023-06-22T10:07:05;20.20;90.30
20672;DHT22;10495;50.922;4.760;2023-06-22T10:09:31;20.00;90.80
20672;DHT22;10495;50.922;4.760;2023-06-22T10:11:57;19.90;91.10
20672;DHT22;10495;50.922;4.760;2023-06-22T10:14:22;20.00;91.10
20672;DHT22;10495;50.922;4.760;2023-06-22T10:16:50;19.90;91.60
20672;DHT22;10495;50.922;4.760;2023-06-22T10:19:16;19.90;92.50
20672;DHT22;10495;50.922;4.760;2023-06-22T10:21:42;19.70;92.70
20672;DHT22;10495;50.922;4.760;2023-06-22T10:24:07;19.60;92.90
20672;DHT22;10495;50.922;4.760;2023-06-22T10:26:34;19.50;93.20
20672;DHT22;10495;50.922;4.760;2023-06-22T10:29:00;19.40;93.50
20672;DHT22;10495;50.922;4.760;2023-06-22T10:31:26;19.50;93.50
20672;DHT22;10495;50.922;4.760;2023-06-22T10:33:53;19.60;93.60
20672;DHT22;10495;50.922;4.760;2023-06-22T10:36:19;19.80;93.50
20672;DHT22;10495;50.922;4.760;2023-06-22T10:38:44;19.60;93.60
20672;DHT22;10495;50.922;4.760;2023-06-22T10:41:10;19.70;93.60
20672;DHT22;10495;50.922;4.760;2023-06-22T10:43:36;19.60;93.30
20672;DHT22;10495;50.922;4.760;2023-06-22T10:46:02;19.50;93.50
20672;DHT22;10495;50.922;4.760;2023-06-22T10:48:27;19.50;93.70
20672;DHT22;10495;50.922;4.760;2023-06-22T10:50:53;19.60;93.70
20672;DHT22;10495;50.922;4.760;2023-06-22T10:53:20;19.70;93.60
20672;DHT22;10495;50.922;4.760;2023-06-22T10:55:45;20.00;93.40
20672;DHT22;10495;50.922;4.760;2023-06-22T10:58:11;19.90;93.10
20672;DHT22;10495;50.922;4.760;2023-06-22T11:00:37;19.90;92.80
20672;DHT22;10495;50.922;4.760;2023-06-22T11:03:02;19.90;93.00
20672;DHT22;10495;50.922;4.760;2023-06-22T11:05:28;19.90;93.10
20672;DHT22;10495;50.922;4.760;2023-06-22T11:07:54;19.90;93.00
20672;DHT22;10495;50.922;4.760;2023-06-22T11:10:19;19.80;93.10
20672;DHT22;10495;50.922;4.760;2023-06-22T11:12:45;19.80;93.10
20672;DHT22;10495;50.922;4.760;2023-06-22T11:15:10;19.70;93.50
20672;DHT22;10495;50.922;4.760;2023-06-22T11:17:36;19.50;93.40
20672;DHT22;10495;50.922;4.760;2023-06-22T11:20:02;19.50;93.60
20672;DHT22;10495;50.922;4.760;2023-06-22T11:22:35;19.50;94.00
20672;DHT22;10495;50.922;4.760;2023-06-22T11:25:00;19.50;94.20
20672;DHT22;10495;50.922;4.760;2023-06-22T11:27:26;19.50;94.40
20672;DHT22;10495;50.922;4.760;2023-06-22T11:29:52;19.70;94.40
20672;DHT22;10495;50.922;4.760;2023-06-22T11:32:18;19.70;94.10
20672;DHT22;10495;50.922;4.760;2023-06-22T11:34:44;19.90;93.70
20672;DHT22;10495;50.922;4.760;2023-06-22T11:37:10;20.00;93.10
20672;DHT22;10495;50.922;4.760;2023-06-22T11:39:35;19.90;93.30
20672;DHT22;10495;50.922;4.760;2023-06-22T11:42:01;19.90;93.30
20672;DHT22;10495;50.922;4.760;2023-06-22T11:44:26;19.90;93.20
20672;DHT22;10495;50.922;4.760;2023-06-22T11:46:52;19.80;93.60
20672;DHT22;10495;50.922;4.760;2023-06-22T11:49:17;19.90;93.40
20672;DHT22;10495;50.922;4.760;2023-06-22T11:51:43;19.90;93.50
20672;DHT22;10495;50.922;4.760;2023-06-22T11:54:09;19.90;93.50
20672;DHT22;10495;50.922;4.760;2023-06-22T11:56:34;19.90;93.90
20672;DHT22;10495;50.922;4.760;2023-06-22T11:59:00;19.80;93.70
20672;DHT22;10495;50.922;4.760;2023-06-22T12:01:25;19.60;94.00
20672;DHT22;10495;50.922;4.760;2023-06-22T12:03:51;19.50;94.50
20672;DHT22;10495;50.922;4.760;2023-06-22T12:06:17;19.50;94.50
20672;DHT22;10495;50.922;4.760;2023-06-22T12:08:43;19.40;95.00
20672;DHT22;10495;50.922;4.760;2023-06-22T12:11:08;19.40;94.80
20672;DHT22;10495;50.922;4.760;2023-06-22T12:13:34;19.70;94.60
20672;DHT22;10495;50.922;4.760;2023-06-22T12:15:59;19.80;94.60
20672;DHT22;10495;50.922;4.760;2023-06-22T12:18:25;19.80;94.70
20672;DHT22;10495;50.922;4.760;2023-06-22T12:20:51;19.90;94.50
20672;DHT22;10495;50.922;4.760;2023-06-22T12:23:16;19.90;94.10
20672;DHT22;10495;50.922;4.760;2023-06-22T12:25:42;19.90;94.10
20672;DHT22;10495;50.922;4.760;2023-06-22T12:28:07;19.90;94.10
20672;DHT22;10495;50.922;4.760;2023-06-22T12:30:33;19.90;94.00
20672;DHT22;10495;50.922;4.760;2023-06-22T12:32:59;19.80;94.20
20672;DHT22;10495;50.922;4.760;2023-06-22T12:35:24;19.60;94.60
20672;DHT22;10495;50.922;4.760;2023-06-22T12:37:50;19.50;94.80
20672;DHT22;10495;50.922;4.760;2023-06-22T12:40:16;19.50;94.90
20672;DHT22;10495;50.922;4.760;2023-06-22T12:42:41;19.60;95.10
20672;DHT22;10495;50.922;4.760;2023-06-22T12:45:08;19.60;95.10
20672;DHT22;10495;50.922;4.760;2023-06-22T12:47:34;19.50;95.10
20672;DHT22;10495;50.922;4.760;2023-06-22T12:49:59;19.50;95.30
20672;DHT22;10495;50.922;4.760;2023-06-22T12:52:25;19.40;95.60
20672;DHT22;10495;50.922;4.760;2023-06-22T12:54:51;19.40;95.80
20672;DHT22;10495;50.922;4.760;2023-06-22T12:57:17;19.60;95.40
20672;DHT22;10495;50.922;4.760;2023-06-22T12:59:44;19.60;95.40
20672;DHT22;10495;50.922;4.760;2023-06-22T13:02:10;19.50;95.60
20672;DHT22;10495;50.922;4.760;2023-06-22T13:04:36;19.50;95.80
20672;DHT22;10495;50.922;4.760;2023-06-22T13:07:01;19.40;95.80
20672;DHT22;10495;50.922;4.760;2023-06-22T13:09:27;19.50;96.00
20672;DHT22;10495;50.922;4.760;2023-06-22T13:11:53;19.70;95.70
20672;DHT22;10495;50.922;4.760;2023-06-22T13:14:18;19.70;95.30
20672;DHT22;10495;50.922;4.760;2023-06-22T13:16:44;19.60;95.40
20672;DHT22;10495;50.922;4.760;2023-06-22T13:19:09;19.50;95.60
20672;DHT22;10495;50.922;4.760;2023-06-22T13:21:35;19.40;95.60
20672;DHT22;10495;50.922;4.760;2023-06-22T13:24:01;19.40;95.70
20672;DHT22;10495;50.922;4.760;2023-06-22T13:26:26;19.50;95.80
20672;DHT22;10495;50.922;4.760;2023-06-22T13:28:54;19.50;95.60
20672;DHT22;10495;50.922;4.760;2023-06-22T13:31:19;19.50;95.70
20672;DHT22;10495;50.922;4.760;2023-06-22T13:33:45;19.40;95.70
20672;DHT22;10495;50.922;4.760;2023-06-22T13:36:13;19.20;95.90
20672;DHT22;10495;50.922;4.760;2023-06-22T13:38:39;19.30;96.20
20672;DHT22;10495;50.922;4.760;2023-06-22T13:41:05;19.30;96.10
20672;DHT22;10495;50.922;4.760;2023-06-22T13:43:30;19.40;96.00
20672;DHT22;10495;50.922;4.760;2023-06-22T13:45:56;19.40;95.80
20672;DHT22;10495;50.922;4.760;2023-06-22T13:48:22;19.40;96.00
20672;DHT22;10495;50.922;4.760;2023-06-22T13:50:49;19.50;95.80
20672;DHT22;10495;50.922;4.760;2023-06-22T13:53:14;19.70;95.50
20672;DHT22;10495;50.922;4.760;2023-06-22T13:55:40;19.60;95.40
20672;DHT22;10495;50.922;4.760;2023-06-22T13:58:07;19.50;95.50
20672;DHT22;10495;50.922;4.760;2023-06-22T14:00:32;19.30;95.80
20672;DHT22;10495;50.922;4.760;2023-06-22T14:02:58;19.40;96.10
20672;DHT22;10495;50.922;4.760;2023-06-22T14:05:23;19.40;96.00
20672;DHT22;10495;50.922;4.760;2023-06-22T14:07:49;19.40;96.00
20672;DHT22;10495;50.922;4.760;2023-06-22T14:10:15;19.40;96.20
20672;DHT22;10495;50.922;4.760;2023-06-22T14:12:40;19.40;96.30
20672;DHT22;10495;50.922;4.760;2023-06-22T14:15:06;19.40;96.40
20672;DHT22;10495;50.922;4.760;2023-06-22T14:17:32;19.50;96.20
20672;DHT22;10495;50.922;4.760;2023-06-22T14:19:58;19.40;96.20
20672;DHT22;10495;50.922;4.760;2023-06-22T14:22:23;19.40;96.10
20672;DHT22;10495;50.922;4.760;2023-06-22T14:24:49;19.40;96.30
20672;DHT22;10495;50.922;4.760;2023-06-22T14:27:15;19.40;96.50
20672;DHT22;10495;50.922;4.760;2023-06-22T14:29:41;19.50;96.30
20672;DHT22;10495;50.922;4.760;2023-06-22T14:32:07;19.40;96.30
20672;DHT22;10495;50.922;4.760;2023-06-22T14:34:33;19.30;96.20
20672;DHT22;10495;50.922;4.760;2023-06-22T14:37:02;19.30;96.40
20672;DHT22;10495;50.922;4.760;2023-06-22T14:39:27;19.30;96.50
20672;DHT22;10495;50.922;4.760;2023-06-22T14:41:53;19.40;96.40
20672;DHT22;10495;50.922;4.760;2023-06-22T14:44:19;19.40;96.40
20672;DHT22;10495;50.922;4.760;2023-06-22T14:46:44;19.30;96.30
20672;DHT22;10495;50.922;4.760;2023-06-22T14:49:10;19.30;96.40
20672;DHT22;10495;50.922;4.760;2023-06-22T14:51:35;19.30;96.20
20672;DHT22;10495;50.922;4.760;2023-06-22T14:54:01;19.20;96.50
20672;DHT22;10495;50.922;4.760;2023-06-22T14:56:26;19.30;96.60
20672;DHT22;10495;50.922;4.760;2023-06-22T14:58:52;19.40;96.20
20672;DHT22;10495;50.922;4.760;2023-06-22T15:01:18;19.30;96.50
20672;DHT22;10495;50.922;4.760;2023-06-22T15:03:43;19.40;96.60
20672;DHT22;10495;50.922;4.760;2023-06-22T15:06:09;19.40;96.50
20672;DHT22;10495;50.922;4.760;2023-06-22T15:08:37;19.50;96.50
20672;DHT22;10495;50.922;4.760;2023-06-22T15:11:04;19.50;96.30
20672;DHT22;10495;50.922;4.760;2023-06-22T15:13:33;19.40;96.70
20672;DHT22;10495;50.922;4.760;2023-06-22T15:16:00;19.50;96.40
20672;DHT22;10495;50.922;4.760;2023-06-22T15:18:25;19.60;96.60
20672;DHT22;10495;50.922;4.760;2023-06-22T15:20:52;19.80;96.20
20672;DHT22;10495;50.922;4.760;2023-06-22T15:23:18;19.60;96.00
20672;DHT22;10495;50.922;4.760;2023-06-22T15:25:43;19.60;96.20
20672;DHT22;10495;50.922;4.760;2023-06-22T15:28:10;19.60;96.30
20672;DHT22;10495;50.922;4.760;2023-06-22T15:30:35;19.70;96.60
20672;DHT22;10495;50.922;4.760;2023-06-22T15:33:01;19.80;96.60
20672;DHT22;10495;50.922;4.760;2023-06-22T15:35:27;19.80;96.60